sensor_id;sensor_type;location;lat;lon;timestamp;P1;durP1;ratioP1;P2;durP2;ratioP2
28009;SDS011;15334;49.494;8.410;2023-01-09T00:00:01;5.55;;;3.30;;
28009;SDS011;15334;49.494;8.410;2023-01-09T00:02:32;9.63;;;4.10;;
28009;SDS011;15334;49.494;8.410;2023-01-09T00:05:01;8.25;;;4.00;;
28009;SDS011;15334;49.494;8.410;2023-01-09T00:07:29;6.68;;;3.70;;
28009;SDS011;15334;49.494;8.410;2023-01-09T00:09:57;8.07;;;4.15;;
28009;SDS011;15334;49.494;8.410;2023-01-09T00:12:25;8.27;;;3.95;;
28009;SDS011;15334;49.494;8.410;2023-01-09T00:14:53;8.43;;;3.97;;
28009;SDS011;15334;49.494;8.410;2023-01-09T00:17:21;6.72;;;3.30;;
28009;SDS011;15334;49.494;8.410;2023-01-09T00:19:50;9.32;;;4.00;;
28009;SDS011;15334;49.494;8.410;2023-01-09T00:22:19;9.43;;;4.25;;
28009;SDS011;15334;49.494;8.410;2023-01-09T00:24:47;7.65;;;3.90;;
28009;SDS011;15334;49.494;8.410;2023-01-09T00:27:15;6.88;;;3.70;;
28009;SDS011;15334;49.494;8.410;2023-01-09T00:29:43;6.70;;;3.55;;
28009;SDS011;15334;49.494;8.410;2023-01-09T00:32:11;7.50;;;3.80;;
28009;SDS011;15334;49.494;8.410;2023-01-09T00:34:39;8.05;;;3.47;;
28009;SDS011;15334;49.494;8.410;2023-01-09T00:37:13;5.97;;;2.95;;
28009;SDS011;15334;49.494;8.410;2023-01-09T00:39:41;5.97;;;2.60;;
28009;SDS011;15334;49.494;8.410;2023-01-09T00:42:10;4.65;;;2.65;;
28009;SDS011;15334;49.494;8.410;2023-01-09T00:44:42;4.45;;;2.10;;
28009;SDS011;15334;49.494;8.410;2023-01-09T00:47:13;5.57;;;2.20;;
28009;SDS011;15334;49.494;8.410;2023-01-09T00:49:48;3.75;;;1.90;;
28009;SDS011;15334;49.494;8.410;2023-01-09T00:52:19;5.28;;;2.03;;
28009;SDS011;15334;49.494;8.410;2023-01-09T00:54:48;4.95;;;1.95;;
28009;SDS011;15334;49.494;8.410;2023-01-09T00:57:17;4.40;;;1.75;;
28009;SDS011;15334;49.494;8.410;2023-01-09T00:59:45;2.75;;;1.80;;
28009;SDS011;15334;49.494;8.410;2023-01-09T01:02:13;2.22;;;1.30;;
28009;SDS011;15334;49.494;8.410;2023-01-09T01:04:41;3.58;;;1.75;;
28009;SDS011;15334;49.494;8.410;2023-01-09T01:07:24;4.23;;;1.50;;
28009;SDS011;15334;49.494;8.410;2023-01-09T01:10:09;3.23;;;1.43;;
28009;SDS011;15334;49.494;8.410;2023-01-09T01:12:38;4.38;;;1.80;;
28009;SDS011;15334;49.494;8.410;2023-01-09T01:15:07;2.45;;;1.52;;
28009;SDS011;15334;49.494;8.410;2023-01-09T01:17:36;3.38;;;1.60;;
28009;SDS011;15334;49.494;8.410;2023-01-09T01:20:06;4.15;;;1.50;;
28009;SDS011;15334;49.494;8.410;2023-01-09T01:22:37;2.63;;;1.40;;
28009;SDS011;15334;49.494;8.410;2023-01-09T01:25:08;3.43;;;1.70;;
28009;SDS011;15334;49.494;8.410;2023-01-09T01:27:37;1.75;;;1.23;;
28009;SDS011;15334;49.494;8.410;2023-01-09T01:30:06;2.90;;;1.23;;
28009;SDS011;15334;49.494;8.410;2023-01-09T01:32:36;2.92;;;1.33;;
28009;SDS011;15334;49.494;8.410;2023-01-09T01:35:04;3.90;;;1.60;;
28009;SDS011;15334;49.494;8.410;2023-01-09T01:37:33;2.55;;;1.35;;
28009;SDS011;15334;49.494;8.410;2023-01-09T01:40:03;2.67;;;1.67;;
28009;SDS011;15334;49.494;8.410;2023-01-09T01:42:33;3.15;;;1.70;;
28009;SDS011;15334;49.494;8.410;2023-01-09T01:45:04;3.30;;;1.70;;
28009;SDS011;15334;49.494;8.410;2023-01-09T01:47:36;3.20;;;1.40;;
28009;SDS011;15334;49.494;8.410;2023-01-09T01:50:10;2.53;;;1.23;;
28009;SDS011;15334;49.494;8.410;2023-01-09T01:52:46;1.55;;;1.00;;
28009;SDS011;15334;49.494;8.410;2023-01-09T01:55:20;1.52;;;0.85;;
28009;SDS011;15334;49.494;8.410;2023-01-09T01:57:49;2.80;;;1.02;;
28009;SDS011;15334;49.494;8.410;2023-01-09T02:00:22;1.80;;;1.20;;
28009;SDS011;15334;49.494;8.410;2023-01-09T02:02:59;3.05;;;1.25;;
28009;SDS011;15334;49.494;8.410;2023-01-09T02:05:28;1.60;;;1.10;;
28009;SDS011;15334;49.494;8.410;2023-01-09T02:07:58;2.33;;;0.98;;
28009;SDS011;15334;49.494;8.410;2023-01-09T02:10:29;2.47;;;1.40;;
28009;SDS011;15334;49.494;8.410;2023-01-09T02:12:59;1.73;;;1.03;;
28009;SDS011;15334;49.494;8.410;2023-01-09T02:15:28;2.53;;;1.40;;
28009;SDS011;15334;49.494;8.410;2023-01-09T02:18:10;2.65;;;1.38;;
28009;SDS011;15334;49.494;8.410;2023-01-09T02:20:50;2.88;;;1.40;;
28009;SDS011;15334;49.494;8.410;2023-01-09T02:26:39;2.65;;;1.30;;
28009;SDS011;15334;49.494;8.410;2023-01-09T02:35:49;3.50;;;1.70;;
28009;SDS011;15334;49.494;8.410;2023-01-09T02:38:28;3.33;;;1.60;;
28009;SDS011;15334;49.494;8.410;2023-01-09T02:41:01;6.70;;;2.13;;
28009;SDS011;15334;49.494;8.410;2023-01-09T02:43:37;3.70;;;1.90;;
28009;SDS011;15334;49.494;8.410;2023-01-09T02:46:10;4.13;;;2.03;;
28009;SDS011;15334;49.494;8.410;2023-01-09T02:48:47;4.00;;;1.75;;
28009;SDS011;15334;49.494;8.410;2023-01-09T02:51:19;5.65;;;2.05;;
28009;SDS011;15334;49.494;8.410;2023-01-09T02:54:05;5.57;;;2.00;;
28009;SDS011;15334;49.494;8.410;2023-01-09T02:59:26;3.38;;;1.73;;
28009;SDS011;15334;49.494;8.410;2023-01-09T03:02:07;2.20;;;1.25;;
28009;SDS011;15334;49.494;8.410;2023-01-09T03:04:54;2.53;;;1.40;;
28009;SDS011;15334;49.494;8.410;2023-01-09T03:07:26;3.13;;;1.30;;
28009;SDS011;15334;49.494;8.410;2023-01-09T03:10:00;3.30;;;1.60;;
28009;SDS011;15334;49.494;8.410;2023-01-09T03:12:32;3.92;;;1.35;;
28009;SDS011;15334;49.494;8.410;2023-01-09T03:15:06;2.15;;;1.20;;
28009;SDS011;15334;49.494;8.410;2023-01-09T03:17:41;1.52;;;0.98;;
28009;SDS011;15334;49.494;8.410;2023-01-09T03:20:16;2.10;;;1.02;;
28009;SDS011;15334;49.494;8.410;2023-01-09T03:22:52;1.90;;;1.23;;
28009;SDS011;15334;49.494;8.410;2023-01-09T03:25:21;2.90;;;1.17;;
28009;SDS011;15334;49.494;8.410;2023-01-09T03:27:51;4.20;;;0.80;;
28009;SDS011;15334;49.494;8.410;2023-01-09T03:30:25;0.98;;;0.60;;
28009;SDS011;15334;49.494;8.410;2023-01-09T03:32:57;0.88;;;0.60;;
28009;SDS011;15334;49.494;8.410;2023-01-09T03:35:27;0.80;;;0.60;;
28009;SDS011;15334;49.494;8.410;2023-01-09T03:37:55;0.82;;;0.57;;
28009;SDS011;15334;49.494;8.410;2023-01-09T03:40:24;0.50;;;0.50;;
28009;SDS011;15334;49.494;8.410;2023-01-09T03:42:52;0.68;;;0.50;;
28009;SDS011;15334;49.494;8.410;2023-01-09T03:45:20;0.52;;;0.38;;
28009;SDS011;15334;49.494;8.410;2023-01-09T03:47:48;2.83;;;0.80;;
28009;SDS011;15334;49.494;8.410;2023-01-09T03:50:18;1.45;;;0.45;;
28009;SDS011;15334;49.494;8.410;2023-01-09T03:52:47;1.20;;;0.65;;
28009;SDS011;15334;49.494;8.410;2023-01-09T03:55:15;1.35;;;0.50;;
28009;SDS011;15334;49.494;8.410;2023-01-09T03:57:43;1.92;;;0.52;;
28009;SDS011;15334;49.494;8.410;2023-01-09T04:00:12;0.32;;;0.30;;
28009;SDS011;15334;49.494;8.410;2023-01-09T04:02:40;0.52;;;0.50;;
28009;SDS011;15334;49.494;8.410;2023-01-09T04:05:09;0.65;;;0.40;;
28009;SDS011;15334;49.494;8.410;2023-01-09T04:07:37;0.77;;;0.40;;
28009;SDS011;15334;49.494;8.410;2023-01-09T04:10:07;1.45;;;0.45;;
28009;SDS011;15334;49.494;8.410;2023-01-09T04:12:36;0.93;;;0.60;;
28009;SDS011;15334;49.494;8.410;2023-01-09T04:15:04;1.98;;;0.40;;
28009;SDS011;15334;49.494;8.410;2023-01-09T04:17:33;0.30;;;0.30;;
28009;SDS011;15334;49.494;8.410;2023-01-09T04:20:01;0.98;;;0.40;;
28009;SDS011;15334;49.494;8.410;2023-01-09T04:22:29;0.63;;;0.50;;
28009;SDS011;15334;49.494;8.410;2023-01-09T04:24:57;0.60;;;0.50;;
28009;SDS011;15334;49.494;8.410;2023-01-09T04:27:26;0.40;;;0.40;;
28009;SDS011;15334;49.494;8.410;2023-01-09T04:29:54;0.63;;;0.50;;
28009;SDS011;15334;49.494;8.410;2023-01-09T04:32:22;1.05;;;0.50;;
28009;SDS011;15334;49.494;8.410;2023-01-09T04:34:52;1.10;;;0.47;;
28009;SDS011;15334;49.494;8.410;2023-01-09T04:37:20;1.08;;;0.50;;
28009;SDS011;15334;49.494;8.410;2023-01-09T04:39:49;1.10;;;0.60;;
28009;SDS011;15334;49.494;8.410;2023-01-09T04:42:20;0.35;;;0.35;;
28009;SDS011;15334;49.494;8.410;2023-01-09T04:44:49;1.45;;;0.68;;
28009;SDS011;15334;49.494;8.410;2023-01-09T04:47:21;0.73;;;0.40;;
28009;SDS011;15334;49.494;8.410;2023-01-09T04:49:49;1.27;;;0.50;;
28009;SDS011;15334;49.494;8.410;2023-01-09T04:52:18;1.33;;;0.50;;
28009;SDS011;15334;49.494;8.410;2023-01-09T04:54:46;2.40;;;0.70;;
28009;SDS011;15334;49.494;8.410;2023-01-09T04:57:14;1.38;;;0.50;;
28009;SDS011;15334;49.494;8.410;2023-01-09T04:59:42;2.75;;;0.55;;
28009;SDS011;15334;49.494;8.410;2023-01-09T05:02:11;1.02;;;0.47;;
28009;SDS011;15334;49.494;8.410;2023-01-09T05:04:39;0.40;;;0.40;;
28009;SDS011;15334;49.494;8.410;2023-01-09T05:07:08;0.75;;;0.65;;
28009;SDS011;15334;49.494;8.410;2023-01-09T05:09:36;1.20;;;0.43;;
28009;SDS011;15334;49.494;8.410;2023-01-09T05:12:04;1.00;;;0.60;;
28009;SDS011;15334;49.494;8.410;2023-01-09T05:14:33;1.30;;;0.63;;
28009;SDS011;15334;49.494;8.410;2023-01-09T05:17:01;1.10;;;0.40;;
28009;SDS011;15334;49.494;8.410;2023-01-09T05:19:30;1.50;;;0.57;;
28009;SDS011;15334;49.494;8.410;2023-01-09T05:21:59;1.27;;;0.57;;
28009;SDS011;15334;49.494;8.410;2023-01-09T05:24:28;1.90;;;0.57;;
28009;SDS011;15334;49.494;8.410;2023-01-09T05:26:56;0.95;;;0.50;;
28009;SDS011;15334;49.494;8.410;2023-01-09T05:29:24;0.43;;;0.40;;
28009;SDS011;15334;49.494;8.410;2023-01-09T05:31:52;0.82;;;0.50;;
28009;SDS011;15334;49.494;8.410;2023-01-09T05:34:20;1.20;;;0.50;;
28009;SDS011;15334;49.494;8.410;2023-01-09T05:36:50;1.70;;;0.50;;
28009;SDS011;15334;49.494;8.410;2023-01-09T05:39:18;2.88;;;0.45;;
28009;SDS011;15334;49.494;8.410;2023-01-09T05:41:46;3.58;;;0.68;;
28009;SDS011;15334;49.494;8.410;2023-01-09T05:44:14;2.72;;;0.40;;
28009;SDS011;15334;49.494;8.410;2023-01-09T05:46:42;3.60;;;0.70;;
28009;SDS011;15334;49.494;8.410;2023-01-09T05:49:13;2.80;;;0.50;;
28009;SDS011;15334;49.494;8.410;2023-01-09T05:51:42;2.60;;;0.60;;
28009;SDS011;15334;49.494;8.410;2023-01-09T05:54:12;0.68;;;0.47;;
28009;SDS011;15334;49.494;8.410;2023-01-09T05:56:40;2.70;;;0.60;;
28009;SDS011;15334;49.494;8.410;2023-01-09T05:59:08;2.58;;;0.60;;
28009;SDS011;15334;49.494;8.410;2023-01-09T06:01:36;0.77;;;0.32;;
28009;SDS011;15334;49.494;8.410;2023-01-09T06:04:04;2.30;;;0.40;;
28009;SDS011;15334;49.494;8.410;2023-01-09T06:06:32;5.80;;;0.60;;
28009;SDS011;15334;49.494;8.410;2023-01-09T06:09:00;4.57;;;0.77;;
28009;SDS011;15334;49.494;8.410;2023-01-09T06:11:30;1.42;;;0.60;;
28009;SDS011;15334;49.494;8.410;2023-01-09T06:13:59;3.90;;;0.60;;
28009;SDS011;15334;49.494;8.410;2023-01-09T06:16:31;4.25;;;0.90;;
28009;SDS011;15334;49.494;8.410;2023-01-09T06:18:59;1.40;;;0.60;;
28009;SDS011;15334;49.494;8.410;2023-01-09T06:21:27;2.05;;;0.85;;
28009;SDS011;15334;49.494;8.410;2023-01-09T06:24:00;6.32;;;0.93;;
28009;SDS011;15334;49.494;8.410;2023-01-09T06:26:29;2.92;;;1.02;;
28009;SDS011;15334;49.494;8.410;2023-01-09T06:28:57;1.75;;;0.50;;
28009;SDS011;15334;49.494;8.410;2023-01-09T06:31:26;4.40;;;0.80;;
28009;SDS011;15334;49.494;8.410;2023-01-09T06:33:54;4.68;;;0.90;;
28009;SDS011;15334;49.494;8.410;2023-01-09T06:36:22;6.53;;;0.93;;
28009;SDS011;15334;49.494;8.410;2023-01-09T06:38:50;3.05;;;0.80;;
28009;SDS011;15334;49.494;8.410;2023-01-09T06:41:21;6.70;;;0.80;;
28009;SDS011;15334;49.494;8.410;2023-01-09T06:43:50;4.35;;;1.00;;
28009;SDS011;15334;49.494;8.410;2023-01-09T06:46:18;3.58;;;1.00;;
28009;SDS011;15334;49.494;8.410;2023-01-09T06:48:46;5.00;;;1.00;;
28009;SDS011;15334;49.494;8.410;2023-01-09T06:51:14;2.85;;;0.93;;
28009;SDS011;15334;49.494;8.410;2023-01-09T06:53:42;2.35;;;1.27;;
28009;SDS011;15334;49.494;8.410;2023-01-09T06:56:11;5.25;;;1.58;;
28009;SDS011;15334;49.494;8.410;2023-01-09T06:58:39;0.98;;;0.55;;
28009;SDS011;15334;49.494;8.410;2023-01-09T07:01:08;1.95;;;0.80;;
28009;SDS011;15334;49.494;8.410;2023-01-09T07:03:36;1.65;;;0.63;;
28009;SDS011;15334;49.494;8.410;2023-01-09T07:06:04;4.95;;;1.00;;
28009;SDS011;15334;49.494;8.410;2023-01-09T07:08:33;2.47;;;0.82;;
28009;SDS011;15334;49.494;8.410;2023-01-09T07:11:02;4.90;;;0.80;;
28009;SDS011;15334;49.494;8.410;2023-01-09T07:13:30;3.30;;;0.70;;
28009;SDS011;15334;49.494;8.410;2023-01-09T07:15:58;3.58;;;1.33;;
28009;SDS011;15334;49.494;8.410;2023-01-09T07:18:29;5.03;;;1.20;;
28009;SDS011;15334;49.494;8.410;2023-01-09T07:21:00;4.43;;;0.95;;
28009;SDS011;15334;49.494;8.410;2023-01-09T07:23:28;4.50;;;0.77;;
28009;SDS011;15334;49.494;8.410;2023-01-09T07:25:55;3.47;;;0.85;;
28009;SDS011;15334;49.494;8.410;2023-01-09T07:28:24;13.70;;;1.67;;
28009;SDS011;15334;49.494;8.410;2023-01-09T07:30:52;5.88;;;1.75;;
28009;SDS011;15334;49.494;8.410;2023-01-09T07:33:20;3.92;;;0.90;;
28009;SDS011;15334;49.494;8.410;2023-01-09T07:35:51;6.68;;;1.23;;
28009;SDS011;15334;49.494;8.410;2023-01-09T07:38:18;3.17;;;0.93;;
28009;SDS011;15334;49.494;8.410;2023-01-09T07:40:46;3.28;;;1.08;;
28009;SDS011;15334;49.494;8.410;2023-01-09T07:43:14;2.22;;;0.82;;
28009;SDS011;15334;49.494;8.410;2023-01-09T07:45:42;6.20;;;1.08;;
28009;SDS011;15334;49.494;8.410;2023-01-09T07:48:15;3.47;;;1.02;;
28009;SDS011;15334;49.494;8.410;2023-01-09T07:50:43;4.13;;;0.80;;
28009;SDS011;15334;49.494;8.410;2023-01-09T07:53:17;3.78;;;1.10;;
28009;SDS011;15334;49.494;8.410;2023-01-09T07:55:45;1.88;;;0.52;;
28009;SDS011;15334;49.494;8.410;2023-01-09T07:58:12;3.30;;;0.82;;
28009;SDS011;15334;49.494;8.410;2023-01-09T08:00:40;2.67;;;0.70;;
28009;SDS011;15334;49.494;8.410;2023-01-09T08:03:17;3.80;;;0.88;;
28009;SDS011;15334;49.494;8.410;2023-01-09T08:05:45;3.90;;;1.00;;
28009;SDS011;15334;49.494;8.410;2023-01-09T08:08:17;3.20;;;0.90;;
28009;SDS011;15334;49.494;8.410;2023-01-09T08:10:46;5.03;;;0.80;;
28009;SDS011;15334;49.494;8.410;2023-01-09T08:13:14;6.78;;;1.60;;
28009;SDS011;15334;49.494;8.410;2023-01-09T08:15:42;5.95;;;0.95;;
28009;SDS011;15334;49.494;8.410;2023-01-09T08:18:10;5.70;;;1.20;;
28009;SDS011;15334;49.494;8.410;2023-01-09T08:20:37;11.65;;;1.13;;
28009;SDS011;15334;49.494;8.410;2023-01-09T08:23:08;6.53;;;1.27;;
28009;SDS011;15334;49.494;8.410;2023-01-09T08:25:38;4.18;;;1.50;;
28009;SDS011;15334;49.494;8.410;2023-01-09T08:28:06;6.85;;;1.40;;
28009;SDS011;15334;49.494;8.410;2023-01-09T08:30:34;3.78;;;1.17;;
28009;SDS011;15334;49.494;8.410;2023-01-09T08:33:03;6.35;;;1.10;;
28009;SDS011;15334;49.494;8.410;2023-01-09T08:35:31;2.92;;;0.93;;
28009;SDS011;15334;49.494;8.410;2023-01-09T08:38:01;3.72;;;1.52;;
28009;SDS011;15334;49.494;8.410;2023-01-09T08:40:29;8.27;;;1.40;;
28009;SDS011;15334;49.494;8.410;2023-01-09T08:42:58;3.30;;;1.10;;
28009;SDS011;15334;49.494;8.410;2023-01-09T08:45:45;7.10;;;0.88;;
28009;SDS011;15334;49.494;8.410;2023-01-09T08:48:31;9.25;;;1.00;;
28009;SDS011;15334;49.494;8.410;2023-01-09T08:50:59;2.95;;;1.02;;
28009;SDS011;15334;49.494;8.410;2023-01-09T08:53:32;6.35;;;1.00;;
28009;SDS011;15334;49.494;8.410;2023-01-09T08:56:00;5.88;;;1.15;;
28009;SDS011;15334;49.494;8.410;2023-01-09T08:58:30;3.08;;;1.25;;
28009;SDS011;15334;49.494;8.410;2023-01-09T09:00:59;4.00;;;0.90;;
28009;SDS011;15334;49.494;8.410;2023-01-09T09:03:31;4.63;;;0.80;;
28009;SDS011;15334;49.494;8.410;2023-01-09T09:05:59;1.38;;;0.55;;
28009;SDS011;15334;49.494;8.410;2023-01-09T09:08:27;1.90;;;0.60;;
28009;SDS011;15334;49.494;8.410;2023-01-09T09:10:55;5.60;;;0.80;;
28009;SDS011;15334;49.494;8.410;2023-01-09T09:13:26;5.10;;;1.00;;
28009;SDS011;15334;49.494;8.410;2023-01-09T09:15:55;4.63;;;0.73;;
28009;SDS011;15334;49.494;8.410;2023-01-09T09:18:23;2.28;;;0.88;;
28009;SDS011;15334;49.494;8.410;2023-01-09T09:20:51;7.57;;;1.00;;
28009;SDS011;15334;49.494;8.410;2023-01-09T09:23:21;4.72;;;0.80;;
28009;SDS011;15334;49.494;8.410;2023-01-09T09:25:48;0.95;;;0.57;;
28009;SDS011;15334;49.494;8.410;2023-01-09T09:28:19;3.53;;;1.10;;
28009;SDS011;15334;49.494;8.410;2023-01-09T09:30:47;6.70;;;1.00;;
28009;SDS011;15334;49.494;8.410;2023-01-09T09:33:17;3.00;;;0.60;;
28009;SDS011;15334;49.494;8.410;2023-01-09T09:35:45;1.73;;;0.60;;
28009;SDS011;15334;49.494;8.410;2023-01-09T09:38:13;2.28;;;0.60;;
28009;SDS011;15334;49.494;8.410;2023-01-09T09:40:45;3.03;;;1.02;;
28009;SDS011;15334;49.494;8.410;2023-01-09T09:43:28;1.90;;;0.70;;
28009;SDS011;15334;49.494;8.410;2023-01-09T09:46:27;3.75;;;0.85;;
28009;SDS011;15334;49.494;8.410;2023-01-09T09:49:03;1.98;;;0.90;;
28009;SDS011;15334;49.494;8.410;2023-01-09T09:51:41;4.30;;;0.77;;
28009;SDS011;15334;49.494;8.410;2023-01-09T09:54:24;5.47;;;0.73;;
28009;SDS011;15334;49.494;8.410;2023-01-09T09:56:56;2.90;;;0.77;;
28009;SDS011;15334;49.494;8.410;2023-01-09T09:59:28;2.92;;;0.73;;
28009;SDS011;15334;49.494;8.410;2023-01-09T10:02:04;1.50;;;0.70;;
28009;SDS011;15334;49.494;8.410;2023-01-09T10:04:50;4.90;;;1.00;;
28009;SDS011;15334;49.494;8.410;2023-01-09T10:07:26;3.03;;;0.93;;
28009;SDS011;15334;49.494;8.410;2023-01-09T10:09:59;4.43;;;0.73;;
28009;SDS011;15334;49.494;8.410;2023-01-09T10:12:36;3.58;;;0.60;;
28009;SDS011;15334;49.494;8.410;2023-01-09T10:15:13;4.35;;;0.90;;
28009;SDS011;15334;49.494;8.410;2023-01-09T10:17:46;3.13;;;0.93;;
28009;SDS011;15334;49.494;8.410;2023-01-09T10:26:20;2.90;;;0.77;;
28009;SDS011;15334;49.494;8.410;2023-01-09T10:28:58;2.22;;;0.70;;
28009;SDS011;15334;49.494;8.410;2023-01-09T10:31:40;2.08;;;0.93;;
28009;SDS011;15334;49.494;8.410;2023-01-09T10:34:23;4.55;;;0.80;;
28009;SDS011;15334;49.494;8.410;2023-01-09T10:37:04;2.15;;;0.50;;
28009;SDS011;15334;49.494;8.410;2023-01-09T10:39:40;3.90;;;0.95;;
28009;SDS011;15334;49.494;8.410;2023-01-09T10:42:15;2.33;;;0.73;;
28009;SDS011;15334;49.494;8.410;2023-01-09T10:44:50;6.82;;;1.50;;
28009;SDS011;15334;49.494;8.410;2023-01-09T10:47:23;2.50;;;0.75;;
28009;SDS011;15334;49.494;8.410;2023-01-09T10:49:55;2.70;;;0.95;;
28009;SDS011;15334;49.494;8.410;2023-01-09T10:52:27;3.63;;;0.90;;
28009;SDS011;15334;49.494;8.410;2023-01-09T10:55:01;3.10;;;0.68;;
28009;SDS011;15334;49.494;8.410;2023-01-09T10:57:41;5.10;;;1.08;;
28009;SDS011;15334;49.494;8.410;2023-01-09T11:00:14;4.18;;;0.77;;
28009;SDS011;15334;49.494;8.410;2023-01-09T11:02:47;5.32;;;0.95;;
28009;SDS011;15334;49.494;8.410;2023-01-09T11:05:18;5.38;;;1.27;;
28009;SDS011;15334;49.494;8.410;2023-01-09T11:07:50;6.15;;;1.38;;
28009;SDS011;15334;49.494;8.410;2023-01-09T11:10:22;5.65;;;1.15;;
28009;SDS011;15334;49.494;8.410;2023-01-09T11:13:12;3.38;;;0.82;;
28009;SDS011;15334;49.494;8.410;2023-01-09T11:15:41;2.67;;;0.70;;
28009;SDS011;15334;49.494;8.410;2023-01-09T11:18:19;1.65;;;0.75;;
28009;SDS011;15334;49.494;8.410;2023-01-09T11:20:53;2.33;;;1.00;;
28009;SDS011;15334;49.494;8.410;2023-01-09T11:23:26;7.10;;;1.30;;
28009;SDS011;15334;49.494;8.410;2023-01-09T11:25:57;2.20;;;1.20;;
28009;SDS011;15334;49.494;8.410;2023-01-09T11:28:27;4.68;;;1.60;;
28009;SDS011;15334;49.494;8.410;2023-01-09T11:30:56;2.83;;;0.80;;
28009;SDS011;15334;49.494;8.410;2023-01-09T11:33:26;4.57;;;0.93;;
28009;SDS011;15334;49.494;8.410;2023-01-09T11:35:57;2.95;;;0.90;;
28009;SDS011;15334;49.494;8.410;2023-01-09T11:38:29;4.10;;;1.20;;
28009;SDS011;15334;49.494;8.410;2023-01-09T11:40:59;3.28;;;1.20;;
28009;SDS011;15334;49.494;8.410;2023-01-09T11:43:30;4.88;;;1.20;;
28009;SDS011;15334;49.494;8.410;2023-01-09T11:46:04;2.90;;;0.93;;
28009;SDS011;15334;49.494;8.410;2023-01-09T11:48:35;1.88;;;0.73;;
28009;SDS011;15334;49.494;8.410;2023-01-09T11:51:14;1.75;;;0.80;;
28009;SDS011;15334;49.494;8.410;2023-01-09T11:53:48;1.85;;;0.63;;
28009;SDS011;15334;49.494;8.410;2023-01-09T11:56:32;5.20;;;0.95;;
28009;SDS011;15334;49.494;8.410;2023-01-09T11:59:06;4.53;;;1.00;;
28009;SDS011;15334;49.494;8.410;2023-01-09T12:01:42;1.38;;;0.60;;
28009;SDS011;15334;49.494;8.410;2023-01-09T12:04:24;4.75;;;0.88;;
28009;SDS011;15334;49.494;8.410;2023-01-09T12:09:59;1.10;;;0.68;;
28009;SDS011;15334;49.494;8.410;2023-01-09T12:12:39;5.28;;;0.90;;
28009;SDS011;15334;49.494;8.410;2023-01-09T12:15:18;2.47;;;0.90;;
28009;SDS011;15334;49.494;8.410;2023-01-09T12:17:57;1.35;;;0.43;;
28009;SDS011;15334;49.494;8.410;2023-01-09T12:20:43;7.15;;;1.20;;
28009;SDS011;15334;49.494;8.410;2023-01-09T12:23:31;2.40;;;0.68;;
28009;SDS011;15334;49.494;8.410;2023-01-09T12:26:12;4.55;;;0.73;;
28009;SDS011;15334;49.494;8.410;2023-01-09T12:28:51;3.05;;;0.80;;
28009;SDS011;15334;49.494;8.410;2023-01-09T12:31:51;1.35;;;0.82;;
28009;SDS011;15334;49.494;8.410;2023-01-09T12:37:30;2.63;;;0.88;;
28009;SDS011;15334;49.494;8.410;2023-01-09T12:40:19;3.30;;;0.77;;
28009;SDS011;15334;49.494;8.410;2023-01-09T12:43:01;3.70;;;1.25;;
28009;SDS011;15334;49.494;8.410;2023-01-09T12:45:40;4.90;;;1.10;;
28009;SDS011;15334;49.494;8.410;2023-01-09T12:48:21;2.80;;;1.10;;
28009;SDS011;15334;49.494;8.410;2023-01-09T12:51:13;3.50;;;0.98;;
28009;SDS011;15334;49.494;8.410;2023-01-09T12:53:49;4.13;;;0.80;;
28009;SDS011;15334;49.494;8.410;2023-01-09T12:56:24;3.70;;;0.90;;
28009;SDS011;15334;49.494;8.410;2023-01-09T12:58:59;7.03;;;0.93;;
28009;SDS011;15334;49.494;8.410;2023-01-09T13:01:37;1.85;;;0.80;;
28009;SDS011;15334;49.494;8.410;2023-01-09T13:04:11;3.08;;;0.80;;
28009;SDS011;15334;49.494;8.410;2023-01-09T13:06:45;2.10;;;0.88;;
28009;SDS011;15334;49.494;8.410;2023-01-09T13:09:20;0.45;;;0.32;;
28009;SDS011;15334;49.494;8.410;2023-01-09T13:11:56;3.15;;;0.60;;
28009;SDS011;15334;49.494;8.410;2023-01-09T13:14:43;1.23;;;0.45;;
28009;SDS011;15334;49.494;8.410;2023-01-09T13:17:19;1.60;;;0.60;;
28009;SDS011;15334;49.494;8.410;2023-01-09T13:22:19;2.38;;;0.50;;
28009;SDS011;15334;49.494;8.410;2023-01-09T13:25:02;1.00;;;0.38;;
28009;SDS011;15334;49.494;8.410;2023-01-09T13:27:42;1.73;;;0.32;;
28009;SDS011;15334;49.494;8.410;2023-01-09T13:30:20;1.42;;;0.50;;
28009;SDS011;15334;49.494;8.410;2023-01-09T13:33:00;2.03;;;0.65;;
28009;SDS011;15334;49.494;8.410;2023-01-09T13:35:47;4.97;;;0.65;;
28009;SDS011;15334;49.494;8.410;2023-01-09T13:38:18;2.03;;;0.43;;
28009;SDS011;15334;49.494;8.410;2023-01-09T13:40:59;0.87;;;0.53;;
28009;SDS011;15334;49.494;8.410;2023-01-09T13:43:51;2.45;;;0.43;;
28009;SDS011;15334;49.494;8.410;2023-01-09T13:49:32;1.05;;;0.30;;
28009;SDS011;15334;49.494;8.410;2023-01-09T13:52:28;2.60;;;0.63;;
28009;SDS011;15334;49.494;8.410;2023-01-09T14:00:49;3.45;;;0.52;;
28009;SDS011;15334;49.494;8.410;2023-01-09T14:03:24;1.23;;;0.57;;
28009;SDS011;15334;49.494;8.410;2023-01-09T14:06:15;3.85;;;0.70;;
28009;SDS011;15334;49.494;8.410;2023-01-09T14:08:45;1.27;;;0.45;;
28009;SDS011;15334;49.494;8.410;2023-01-09T14:11:32;1.27;;;0.50;;
28009;SDS011;15334;49.494;8.410;2023-01-09T14:14:05;1.30;;;0.60;;
28009;SDS011;15334;49.494;8.410;2023-01-09T14:16:44;2.25;;;0.95;;
28009;SDS011;15334;49.494;8.410;2023-01-09T14:19:22;3.78;;;0.90;;
28009;SDS011;15334;49.494;8.410;2023-01-09T14:22:02;1.80;;;0.77;;
28009;SDS011;15334;49.494;8.410;2023-01-09T14:24:38;1.90;;;0.93;;
28009;SDS011;15334;49.494;8.410;2023-01-09T14:30:32;1.67;;;0.68;;
28009;SDS011;15334;49.494;8.410;2023-01-09T14:33:02;1.23;;;0.52;;
28009;SDS011;15334;49.494;8.410;2023-01-09T14:35:37;3.30;;;0.60;;
28009;SDS011;15334;49.494;8.410;2023-01-09T14:40:58;2.17;;;1.10;;
28009;SDS011;15334;49.494;8.410;2023-01-09T14:43:41;1.90;;;0.50;;
28009;SDS011;15334;49.494;8.410;2023-01-09T14:46:15;1.10;;;0.40;;
28009;SDS011;15334;49.494;8.410;2023-01-09T14:48:50;2.35;;;0.40;;
28009;SDS011;15334;49.494;8.410;2023-01-09T14:51:26;1.27;;;0.50;;
28009;SDS011;15334;49.494;8.410;2023-01-09T14:53:57;1.85;;;0.52;;
28009;SDS011;15334;49.494;8.410;2023-01-09T14:56:27;0.55;;;0.55;;
28009;SDS011;15334;49.494;8.410;2023-01-09T14:59:04;2.95;;;0.57;;
28009;SDS011;15334;49.494;8.410;2023-01-09T15:01:37;2.63;;;0.60;;
28009;SDS011;15334;49.494;8.410;2023-01-09T15:04:13;6.35;;;1.30;;
28009;SDS011;15334;49.494;8.410;2023-01-09T15:06:50;4.88;;;0.73;;
28009;SDS011;15334;49.494;8.410;2023-01-09T15:09:20;3.33;;;0.60;;
28009;SDS011;15334;49.494;8.410;2023-01-09T15:11:51;2.13;;;0.57;;
28009;SDS011;15334;49.494;8.410;2023-01-09T15:14:24;2.92;;;1.25;;
28009;SDS011;15334;49.494;8.410;2023-01-09T15:16:58;3.10;;;0.70;;
28009;SDS011;15334;49.494;8.410;2023-01-09T15:19:28;1.90;;;0.88;;
28009;SDS011;15334;49.494;8.410;2023-01-09T15:22:00;2.55;;;0.88;;
28009;SDS011;15334;49.494;8.410;2023-01-09T15:24:31;2.50;;;0.65;;
28009;SDS011;15334;49.494;8.410;2023-01-09T15:27:00;4.43;;;1.05;;
28009;SDS011;15334;49.494;8.410;2023-01-09T15:29:30;3.33;;;0.85;;
28009;SDS011;15334;49.494;8.410;2023-01-09T15:31:59;2.33;;;0.70;;
28009;SDS011;15334;49.494;8.410;2023-01-09T15:34:31;2.90;;;0.80;;
28009;SDS011;15334;49.494;8.410;2023-01-09T15:37:01;1.42;;;0.77;;
28009;SDS011;15334;49.494;8.410;2023-01-09T15:39:30;2.47;;;0.90;;
28009;SDS011;15334;49.494;8.410;2023-01-09T15:42:02;4.88;;;1.20;;
28009;SDS011;15334;49.494;8.410;2023-01-09T15:44:48;2.53;;;0.82;;
28009;SDS011;15334;49.494;8.410;2023-01-09T15:47:22;1.25;;;0.90;;
28009;SDS011;15334;49.494;8.410;2023-01-09T15:49:53;3.50;;;1.05;;
28009;SDS011;15334;49.494;8.410;2023-01-09T15:52:23;0.68;;;0.47;;
28009;SDS011;15334;49.494;8.410;2023-01-09T15:54:52;1.00;;;0.60;;
28009;SDS011;15334;49.494;8.410;2023-01-09T15:57:21;3.00;;;0.68;;
28009;SDS011;15334;49.494;8.410;2023-01-09T16:03:09;0.57;;;0.47;;